createdAt,value
2022-10-25T00:00:58.284Z,2.40
2022-10-25T00:03:26.851Z,2.20
2022-10-25T00:05:55.121Z,2.38
2022-10-25T00:08:23.340Z,2.38
2022-10-25T00:10:53.074Z,2.45
2022-10-25T00:13:21.303Z,2.30
2022-10-25T00:15:49.566Z,2.40
2022-10-25T00:18:17.861Z,2.80
2022-10-25T00:20:46.834Z,2.50
2022-10-25T00:23:15.179Z,2.72
2022-10-25T00:25:44.631Z,2.55
2022-10-25T00:28:14.304Z,2.70
2022-10-25T00:30:42.530Z,2.57
2022-10-25T00:33:10.771Z,2.65
2022-10-25T00:35:39.003Z,2.85
2022-10-25T00:38:07.314Z,2.80
2022-10-25T00:40:35.560Z,2.70
2022-10-25T00:43:03.846Z,2.70
2022-10-25T00:45:33.910Z,2.35
2022-10-25T00:48:05.758Z,2.50
2022-10-25T00:50:42.511Z,2.60
2022-10-25T00:53:18.477Z,2.60
2022-10-25T00:55:49.807Z,2.30
2022-10-25T00:58:20.755Z,2.40
2022-10-25T01:00:50.570Z,2.38
2022-10-25T01:03:20.692Z,2.70
2022-10-25T01:05:49.594Z,2.50
2022-10-25T01:08:18.984Z,2.50
2022-10-25T01:10:47.569Z,3.13
2022-10-25T01:13:15.823Z,2.50
2022-10-25T01:15:56.180Z,2.58
2022-10-25T01:18:31.442Z,2.83
2022-10-25T01:21:25.298Z,2.90
2022-10-25T01:24:09.832Z,2.83
2022-10-25T01:27:06.014Z,2.40
2022-10-25T01:30:00.486Z,2.67
2022-10-25T01:32:34.158Z,2.53
2022-10-25T01:35:08.246Z,2.58
2022-10-25T01:37:43.468Z,2.88
2022-10-25T01:40:18.689Z,2.55
2022-10-25T01:42:52.801Z,2.55
2022-10-25T01:45:23.069Z,2.97
2022-10-25T01:47:56.396Z,2.70
2022-10-25T01:50:27.867Z,2.65
2022-10-25T01:52:56.416Z,2.90
2022-10-25T01:55:28.486Z,2.78
2022-10-25T01:58:02.022Z,2.90
2022-10-25T02:00:32.550Z,3.08
2022-10-25T02:05:50.456Z,3.03
2022-10-25T02:08:29.046Z,2.78
2022-10-25T02:11:03.102Z,2.92
2022-10-25T02:13:34.344Z,2.60
2022-10-25T02:16:05.464Z,2.60
2022-10-25T02:18:38.378Z,2.67
2022-10-25T02:21:07.430Z,2.60
2022-10-25T02:23:36.644Z,2.97
2022-10-25T02:26:06.693Z,2.67
2022-10-25T02:28:37.320Z,2.70
2022-10-25T02:33:33.679Z,2.50
2022-10-25T02:36:14.329Z,2.50
2022-10-25T02:41:10.695Z,2.30
2022-10-25T02:43:39.006Z,2.40
2022-10-25T02:46:09.785Z,2.40
2022-10-25T02:48:38.791Z,2.22
2022-10-25T02:51:07.501Z,2.30
2022-10-25T02:53:37.315Z,2.00
2022-10-25T02:56:07.375Z,2.10
2022-10-25T02:58:37.236Z,2.20
2022-10-25T03:01:06.874Z,2.30
2022-10-25T03:03:35.655Z,2.57
2022-10-25T03:06:04.659Z,2.13
2022-10-25T03:08:33.233Z,2.20
2022-10-25T03:11:02.976Z,2.00
2022-10-25T03:13:31.190Z,2.10
2022-10-25T03:15:59.686Z,2.17
2022-10-25T03:18:28.320Z,1.95
2022-10-25T03:20:58.101Z,2.20
2022-10-25T03:23:26.556Z,2.20
2022-10-25T03:25:54.897Z,2.00
2022-10-25T03:28:24.681Z,2.00
2022-10-25T03:30:52.841Z,2.05
2022-10-25T03:33:21.061Z,2.10
2022-10-25T03:35:51.811Z,2.08
2022-10-25T03:38:20.276Z,1.88
2022-10-25T03:40:48.602Z,2.10
2022-10-25T03:43:16.876Z,2.10
2022-10-25T03:45:46.638Z,2.08
2022-10-25T03:48:14.839Z,2.27
2022-10-25T03:50:43.114Z,2.10
2022-10-25T03:53:12.551Z,2.40
2022-10-25T03:55:40.798Z,2.50
2022-10-25T03:58:08.955Z,2.45
2022-10-25T04:00:37.290Z,2.42
2022-10-25T04:05:40.161Z,2.13
2022-10-25T04:08:08.421Z,2.83
2022-10-25T04:10:36.779Z,2.50
2022-10-25T04:13:05.002Z,2.22
2022-10-25T04:15:33.284Z,2.67
2022-10-25T04:18:01.471Z,2.50
2022-10-25T04:20:31.065Z,2.58
2022-10-25T04:22:59.486Z,2.83
2022-10-25T04:25:29.231Z,2.90
2022-10-25T04:27:59.566Z,2.27
2022-10-25T04:30:27.954Z,2.22
2022-10-25T04:32:57.980Z,2.22
2022-10-25T04:35:26.289Z,2.25
2022-10-25T04:37:58.531Z,2.30
2022-10-25T04:40:27.231Z,2.13
2022-10-25T04:42:55.468Z,2.20
2022-10-25T04:45:24.606Z,2.08
2022-10-25T04:47:52.769Z,2.10
2022-10-25T04:50:20.954Z,2.30
2022-10-25T04:52:49.383Z,2.20
2022-10-25T04:55:19.482Z,1.92
2022-10-25T04:57:47.709Z,2.10
2022-10-25T05:00:16.115Z,1.95
2022-10-25T05:02:44.403Z,2.05
2022-10-25T05:05:12.971Z,2.38
2022-10-25T05:07:41.155Z,1.90
2022-10-25T05:10:10.041Z,2.08
2022-10-25T05:12:39.977Z,2.03
2022-10-25T05:15:09.663Z,2.20
2022-10-25T05:17:38.165Z,2.10
2022-10-25T05:20:07.573Z,2.33
2022-10-25T05:22:35.757Z,2.05
2022-10-25T05:25:03.961Z,1.90
2022-10-25T05:27:32.164Z,2.20
2022-10-25T05:30:01.766Z,1.90
2022-10-25T05:32:31.302Z,2.10
2022-10-25T05:34:59.469Z,2.05
2022-10-25T05:37:27.649Z,1.77
2022-10-25T05:39:55.793Z,1.95
2022-10-25T05:42:24.100Z,2.10
2022-10-25T05:44:52.393Z,2.00
2022-10-25T05:47:21.949Z,2.03
2022-10-25T05:49:50.195Z,2.00
2022-10-25T05:52:18.365Z,2.13
2022-10-25T05:54:46.531Z,2.17
2022-10-25T05:57:14.783Z,1.88
2022-10-25T05:59:43.107Z,1.85
2022-10-25T06:02:12.158Z,2.05
2022-10-25T06:04:41.955Z,1.77
2022-10-25T06:07:10.213Z,1.90
2022-10-25T06:09:38.440Z,1.60
2022-10-25T06:12:09.493Z,2.03
2022-10-25T06:14:37.940Z,1.90
2022-10-25T06:17:06.165Z,1.63
2022-10-25T06:19:34.465Z,1.98
2022-10-25T06:22:04.149Z,1.90
2022-10-25T06:24:32.446Z,1.57
2022-10-25T06:27:00.714Z,1.90
2022-10-25T06:29:29.160Z,1.90
2022-10-25T06:31:57.509Z,1.83
2022-10-25T06:34:25.746Z,1.90
2022-10-25T06:36:54.023Z,1.90
2022-10-25T06:39:23.699Z,2.10
2022-10-25T06:41:51.954Z,1.80
2022-10-25T06:44:20.264Z,2.10
2022-10-25T06:47:18.434Z,2.25
2022-10-25T06:49:36.620Z,2.20
2022-10-25T06:52:04.891Z,2.00
2022-10-25T06:54:34.476Z,2.25
2022-10-25T06:57:02.673Z,2.20
2022-10-25T06:59:30.892Z,2.17
2022-10-25T07:01:59.208Z,2.20
2022-10-25T07:04:27.547Z,1.90
2022-10-25T07:06:55.734Z,2.20
2022-10-25T07:09:23.973Z,2.80
2022-10-25T07:11:53.507Z,2.30
2022-10-25T07:14:22.167Z,2.20
2022-10-25T07:16:50.509Z,2.50
2022-10-25T07:19:18.713Z,2.67
2022-10-25T07:21:46.940Z,2.67
2022-10-25T07:24:15.112Z,2.33
2022-10-25T07:26:43.437Z,2.13
2022-10-25T07:29:13.058Z,2.40
2022-10-25T07:31:43.184Z,1.77
2022-10-25T07:34:13.794Z,1.70
2022-10-25T07:39:10.474Z,1.85
2022-10-25T07:41:38.795Z,1.65
2022-10-25T07:44:09.625Z,1.50
2022-10-25T07:46:42.788Z,1.40
2022-10-25T07:49:11.109Z,1.10
2022-10-25T07:51:39.378Z,1.30
2022-10-25T07:54:07.927Z,0.88
2022-10-25T07:56:36.214Z,0.98
2022-10-25T07:59:04.496Z,0.85
2022-10-25T08:01:32.765Z,0.90
2022-10-25T08:04:02.379Z,0.73
2022-10-25T08:06:30.596Z,0.60
2022-10-25T08:09:05.399Z,0.70
2022-10-25T08:11:43.398Z,0.70
2022-10-25T08:14:11.694Z,0.88
2022-10-25T08:16:39.987Z,0.75
2022-10-25T08:19:09.661Z,0.73
2022-10-25T08:21:37.962Z,0.93
2022-10-25T08:24:07.146Z,0.68
2022-10-25T08:26:37.014Z,0.80
2022-10-25T08:29:05.487Z,0.77
2022-10-25T08:31:33.760Z,0.93
2022-10-25T08:34:01.997Z,0.80
2022-10-25T08:36:31.607Z,0.63
2022-10-25T08:38:59.815Z,0.77
2022-10-25T08:41:34.302Z,0.90
2022-10-25T08:44:13.196Z,0.70
2022-10-25T08:46:44.761Z,0.70
2022-10-25T08:49:21.178Z,0.80
2022-10-25T08:51:51.645Z,0.70
2022-10-25T08:57:10.711Z,0.70
2022-10-25T08:59:44.576Z,0.80
2022-10-25T09:02:18.962Z,0.70
2022-10-25T09:04:47.344Z,0.68
2022-10-25T09:07:37.391Z,0.70
2022-10-25T09:10:19.217Z,0.50
2022-10-25T09:12:56.482Z,0.90
2022-10-25T09:15:36.788Z,0.73
2022-10-25T09:18:15.818Z,1.00
2022-10-25T09:20:49.116Z,0.70
2022-10-25T09:23:25.327Z,0.80
2022-10-25T09:26:00.432Z,0.73
2022-10-25T09:28:39.171Z,0.88
2022-10-25T09:31:09.141Z,0.88
2022-10-25T09:33:37.402Z,0.60
2022-10-25T09:36:06.358Z,0.80
2022-10-25T09:38:40.088Z,0.73
2022-10-25T09:41:13.664Z,0.70
2022-10-25T09:43:46.215Z,0.75
2022-10-25T09:46:17.286Z,1.08
2022-10-25T09:48:51.737Z,0.98
2022-10-25T09:51:25.795Z,0.70
2022-10-25T09:53:56.357Z,0.90
2022-10-25T09:56:24.556Z,0.90
2022-10-25T09:58:52.826Z,0.57
2022-10-25T10:01:23.764Z,0.85
2022-10-25T10:03:54.833Z,0.98
2022-10-25T10:06:27.211Z,0.75
2022-10-25T10:09:01.704Z,0.70
2022-10-25T10:11:30.421Z,0.65
2022-10-25T10:14:04.967Z,0.70
2022-10-25T10:16:39.339Z,0.90
2022-10-25T10:19:16.490Z,0.70
2022-10-25T10:21:45.283Z,0.70
2022-10-25T10:24:18.857Z,0.75
2022-10-25T10:26:49.099Z,0.80
2022-10-25T10:29:21.134Z,0.90
2022-10-25T10:31:51.857Z,0.70
2022-10-25T10:34:28.087Z,0.70
2022-10-25T10:37:04.042Z,0.90
2022-10-25T10:39:33.662Z,0.75
2022-10-25T10:42:04.096Z,0.90
2022-10-25T10:44:34.517Z,0.90
2022-10-25T10:47:03.865Z,0.77
2022-10-25T10:49:36.141Z,0.80
2022-10-25T10:52:04.752Z,0.70
2022-10-25T10:54:35.819Z,0.90
2022-10-25T10:57:05.988Z,0.90
2022-10-25T10:59:37.636Z,0.90
2022-10-25T11:02:14.299Z,0.70
2022-10-25T11:04:49.980Z,0.80
2022-10-25T11:07:27.824Z,0.82
2022-10-25T11:10:34.809Z,0.75
2022-10-25T11:13:12.815Z,0.73
2022-10-25T11:16:01.446Z,0.75
2022-10-25T11:18:37.817Z,0.80
2022-10-25T11:21:12.655Z,0.65
2022-10-25T11:23:50.731Z,0.50
2022-10-25T11:26:24.296Z,0.70
2022-10-25T11:29:00.866Z,0.70
2022-10-25T11:31:35.556Z,0.65
2022-10-25T11:34:10.133Z,0.65
2022-10-25T11:36:57.494Z,0.60
2022-10-25T11:39:38.406Z,0.75
2022-10-25T11:42:20.722Z,0.45
2022-10-25T11:45:07.223Z,0.65
2022-10-25T11:47:43.435Z,0.68
2022-10-25T11:50:20.500Z,0.77
2022-10-25T11:53:04.156Z,0.70
2022-10-25T11:55:36.765Z,0.60
2022-10-25T11:58:16.619Z,0.68
2022-10-25T12:00:53.159Z,0.70
2022-10-25T12:03:32.193Z,0.70
2022-10-25T12:06:06.832Z,0.60
2022-10-25T12:08:41.441Z,0.57
2022-10-25T12:11:14.999Z,0.60
2022-10-25T12:13:48.214Z,0.80
2022-10-25T12:16:19.662Z,0.70
2022-10-25T12:18:49.709Z,0.68
2022-10-25T12:21:22.182Z,0.73
2022-10-25T12:23:52.813Z,0.50
2022-10-25T12:26:27.903Z,0.50
2022-10-25T12:28:58.170Z,0.50
2022-10-25T12:31:29.057Z,0.60
2022-10-25T12:34:02.283Z,0.40
2022-10-25T12:36:35.662Z,0.60
2022-10-25T12:39:08.261Z,0.47
2022-10-25T12:41:38.833Z,0.47
2022-10-25T12:44:16.606Z,0.70
2022-10-25T12:47:18.668Z,0.40
2022-10-25T12:49:59.193Z,0.40
2022-10-25T12:52:31.913Z,0.70
2022-10-25T12:55:08.541Z,0.40
2022-10-25T12:57:46.100Z,0.60
2022-10-25T13:00:18.331Z,0.60
2022-10-25T13:03:20.878Z,0.32
2022-10-25T13:05:59.961Z,0.60
2022-10-25T13:08:29.670Z,0.50
2022-10-25T13:10:59.541Z,0.70
2022-10-25T13:13:29.476Z,0.68
2022-10-25T13:15:59.752Z,0.60
2022-10-25T13:18:40.606Z,0.50
2022-10-25T13:21:10.346Z,0.60
2022-10-25T13:24:00.511Z,0.50
2022-10-25T13:26:32.021Z,0.60
2022-10-25T13:29:02.591Z,0.57
2022-10-25T13:31:49.190Z,0.52
2022-10-25T13:34:37.977Z,0.55
2022-10-25T13:37:11.339Z,0.60
2022-10-25T13:39:44.518Z,0.40
2022-10-25T13:42:24.319Z,0.50
2022-10-25T13:44:55.897Z,0.50
2022-10-25T13:47:32.872Z,0.40
2022-10-25T13:50:03.049Z,0.50
2022-10-25T13:52:33.443Z,0.65
2022-10-25T13:55:04.309Z,0.80
2022-10-25T13:57:51.085Z,0.50
2022-10-25T14:00:37.894Z,0.70
2022-10-25T14:06:24.800Z,0.77
2022-10-25T14:09:08.911Z,0.50
2022-10-25T14:11:40.913Z,0.50
2022-10-25T14:14:23.697Z,0.68
2022-10-25T14:17:10.531Z,0.68
2022-10-25T14:19:40.934Z,0.50
2022-10-25T14:24:43.704Z,1.20
2022-10-25T14:27:29.309Z,0.70
2022-10-25T14:30:14.388Z,0.50
2022-10-25T14:32:50.582Z,0.55
2022-10-25T14:35:19.126Z,0.60
2022-10-25T14:37:48.709Z,0.70
2022-10-25T14:40:21.861Z,0.70
2022-10-25T14:42:50.545Z,0.90
2022-10-25T14:45:21.672Z,0.90
2022-10-25T14:47:49.888Z,0.60
2022-10-25T14:50:20.139Z,0.60
2022-10-25T14:52:51.140Z,0.60
2022-10-25T14:55:22.957Z,0.50
2022-10-25T14:57:51.321Z,0.50
2022-10-25T15:00:22.599Z,0.60
2022-10-25T15:02:55.283Z,0.80
2022-10-25T15:05:25.286Z,0.70
2022-10-25T15:07:57.996Z,0.82
2022-10-25T15:10:47.475Z,0.60
2022-10-25T15:13:17.867Z,0.55
2022-10-25T15:15:47.556Z,0.50
2022-10-25T15:18:35.015Z,0.60
2022-10-25T15:21:09.215Z,0.60
2022-10-25T15:23:39.538Z,0.70
2022-10-25T15:26:25.274Z,0.60
2022-10-25T15:28:55.489Z,0.60
2022-10-25T15:31:25.302Z,0.50
2022-10-25T15:33:58.111Z,0.85
2022-10-25T15:36:29.442Z,0.60
2022-10-25T15:39:11.624Z,0.60
2022-10-25T15:41:41.052Z,0.50
2022-10-25T15:44:09.357Z,0.70
2022-10-25T15:46:38.139Z,0.50
2022-10-25T15:49:08.591Z,0.50
2022-10-25T15:51:40.108Z,0.60
2022-10-25T15:54:14.663Z,0.73
2022-10-25T15:56:43.002Z,0.60
2022-10-25T15:59:11.455Z,0.90
2022-10-25T16:01:42.708Z,0.80
2022-10-25T16:04:15.060Z,1.00
2022-10-25T16:06:43.673Z,0.90
2022-10-25T16:09:13.260Z,0.95
2022-10-25T16:11:46.279Z,0.97
2022-10-25T16:14:19.977Z,1.10
2022-10-25T16:16:48.200Z,1.00
2022-10-25T16:19:17.885Z,1.70
2022-10-25T16:21:46.572Z,1.40
2022-10-25T16:24:16.124Z,1.30
2022-10-25T16:26:46.121Z,1.17
2022-10-25T16:29:15.979Z,2.08
2022-10-25T16:31:44.479Z,1.45
2022-10-25T16:34:15.391Z,1.63
2022-10-25T16:36:43.931Z,1.95
2022-10-25T16:39:12.607Z,4.28
2022-10-25T16:41:45.769Z,4.47
2022-10-25T16:44:16.249Z,2.30
2022-10-25T16:46:45.310Z,3.33
2022-10-25T16:49:13.822Z,3.30
2022-10-25T16:51:44.163Z,2.55
2022-10-25T16:54:12.936Z,2.90
2022-10-25T16:56:42.466Z,2.63
2022-10-25T16:59:10.657Z,3.42
2022-10-25T17:01:40.193Z,3.05
2022-10-25T17:04:10.823Z,3.00
2022-10-25T17:06:41.827Z,3.58
2022-10-25T17:09:10.728Z,3.25
2022-10-25T17:11:39.089Z,3.00
2022-10-25T17:14:09.611Z,2.78
2022-10-25T17:19:06.191Z,2.65
2022-10-25T17:21:35.789Z,1.98
2022-10-25T17:24:04.509Z,1.73
2022-10-25T17:26:32.742Z,1.55
2022-10-25T17:29:01.131Z,1.20
2022-10-25T17:31:32.584Z,1.40
2022-10-25T17:34:01.126Z,1.05
2022-10-25T17:36:31.703Z,1.75
2022-10-25T17:41:28.204Z,1.50
2022-10-25T17:43:57.017Z,2.50
2022-10-25T17:46:26.835Z,5.38
2022-10-25T17:48:57.583Z,6.75
2022-10-25T17:51:25.920Z,5.82
2022-10-25T17:53:55.133Z,4.35
2022-10-25T17:56:25.359Z,3.30
2022-10-25T17:58:54.599Z,1.92
2022-10-25T18:01:24.649Z,1.60
2022-10-25T18:03:54.106Z,1.70
2022-10-25T18:06:25.670Z,1.80
2022-10-25T18:08:55.017Z,1.80
2022-10-25T18:11:24.470Z,4.18
2022-10-25T18:13:54.175Z,3.50
2022-10-25T18:16:25.894Z,2.23
2022-10-25T18:18:54.422Z,2.40
2022-10-25T18:21:24.170Z,1.88
2022-10-25T18:23:55.507Z,1.52
2022-10-25T18:26:25.013Z,1.70
2022-10-25T18:28:53.570Z,1.70
2022-10-25T18:31:22.490Z,2.17
2022-10-25T18:33:50.721Z,1.77
2022-10-25T18:36:21.707Z,1.80
2022-10-25T18:38:51.575Z,2.13
2022-10-25T18:41:21.894Z,2.00
2022-10-25T18:43:50.231Z,1.98
2022-10-25T18:46:18.983Z,3.00
2022-10-25T18:48:51.781Z,4.13
2022-10-25T18:51:20.983Z,4.13
2022-10-25T18:53:49.242Z,3.80
2022-10-25T18:56:21.251Z,3.63
2022-10-25T18:58:50.521Z,3.88
2022-10-25T19:01:22.608Z,3.53
2022-10-25T19:03:51.618Z,3.47
2022-10-25T19:06:20.385Z,2.83
2022-10-25T19:08:49.429Z,2.25
2022-10-25T19:11:19.197Z,2.58
2022-10-25T19:13:50.383Z,2.60
2022-10-25T19:16:19.687Z,2.80
2022-10-25T19:18:47.868Z,3.35
2022-10-25T19:21:18.367Z,3.53
2022-10-25T19:23:46.813Z,4.25
2022-10-25T19:26:16.963Z,3.83
2022-10-25T19:28:46.561Z,3.80
2022-10-25T19:31:15.957Z,3.90
2022-10-25T19:33:46.093Z,3.70
2022-10-25T19:36:14.336Z,3.83
2022-10-25T19:38:42.887Z,6.00
2022-10-25T19:41:14.691Z,4.97
2022-10-25T19:43:43.450Z,4.90
2022-10-25T19:46:13.939Z,6.90
2022-10-25T19:48:42.328Z,3.85
2022-10-25T19:51:11.907Z,3.33
2022-10-25T19:53:40.580Z,3.60
2022-10-25T19:56:10.438Z,3.63
2022-10-25T19:58:38.639Z,6.32
2022-10-25T20:01:09.230Z,4.00
2022-10-25T20:03:39.903Z,4.72
2022-10-25T20:06:10.169Z,5.25
2022-10-25T20:08:39.847Z,5.60
2022-10-25T20:11:09.329Z,6.30
2022-10-25T20:13:37.551Z,5.50
2022-10-25T20:16:06.435Z,4.43
2022-10-25T20:18:36.837Z,3.80
2022-10-25T20:21:08.410Z,2.70
2022-10-25T20:23:36.881Z,2.95
2022-10-25T20:26:13.116Z,2.10
2022-10-25T20:28:41.576Z,2.30
2022-10-25T20:31:10.212Z,2.90
2022-10-25T20:33:38.501Z,4.30
2022-10-25T20:36:09.900Z,5.93
2022-10-25T20:38:38.665Z,6.35
2022-10-25T20:41:08.936Z,7.05
2022-10-25T20:43:37.645Z,5.43
2022-10-25T20:46:06.766Z,5.60
2022-10-25T20:48:35.729Z,4.97
2022-10-25T20:51:07.607Z,5.22
2022-10-25T20:53:38.498Z,4.43
2022-10-25T20:56:07.328Z,5.40
2022-10-25T20:58:35.707Z,5.95
2022-10-25T21:01:04.161Z,4.72
2022-10-25T21:03:33.189Z,4.32
2022-10-25T21:06:04.436Z,5.43
2022-10-25T21:08:33.303Z,5.47
2022-10-25T21:11:04.125Z,4.68
2022-10-25T21:13:33.188Z,4.35
2022-10-25T21:16:06.476Z,3.55
2022-10-25T21:18:36.001Z,4.25
2022-10-25T21:21:06.250Z,3.60
2022-10-25T21:23:34.606Z,3.08
2022-10-25T21:26:05.363Z,3.90
2022-10-25T21:28:35.577Z,4.18
2022-10-25T21:31:04.785Z,4.03
2022-10-25T21:33:33.025Z,3.40
2022-10-25T21:36:05.898Z,3.65
2022-10-25T21:38:34.160Z,3.40
2022-10-25T21:41:11.584Z,3.40
2022-10-25T21:43:43.545Z,3.67
2022-10-25T21:46:12.278Z,3.15
2022-10-25T21:48:40.455Z,3.20
2022-10-25T21:51:09.216Z,3.80
2022-10-25T21:53:37.490Z,3.58
2022-10-25T21:56:07.046Z,3.55
2022-10-25T21:58:36.605Z,3.80
2022-10-25T22:01:08.274Z,3.85
2022-10-25T22:03:36.558Z,4.10
2022-10-25T22:06:06.613Z,3.80
2022-10-25T22:08:35.116Z,3.50
2022-10-25T22:11:05.687Z,4.10
2022-10-25T22:16:05.568Z,3.85
2022-10-25T22:18:34.332Z,4.22
2022-10-25T22:21:05.016Z,3.33
2022-10-25T22:23:33.870Z,3.63
2022-10-25T22:26:06.965Z,3.72
2022-10-25T22:28:38.361Z,2.90
2022-10-25T22:31:11.726Z,2.75
2022-10-25T22:33:40.411Z,2.83
2022-10-25T22:36:10.802Z,3.90
2022-10-25T22:38:39.227Z,3.75
2022-10-25T22:41:10.376Z,3.60
2022-10-25T22:43:39.719Z,3.95
2022-10-25T22:46:11.352Z,3.40
2022-10-25T22:48:41.084Z,3.70
2022-10-25T22:51:10.192Z,4.33
2022-10-25T22:56:26.848Z,4.03
2022-10-25T22:58:56.520Z,4.22
2022-10-25T23:01:27.311Z,4.43
2022-10-25T23:03:56.841Z,4.22
2022-10-25T23:06:26.406Z,4.78
2022-10-25T23:08:55.189Z,4.50
2022-10-25T23:11:25.255Z,4.40
2022-10-25T23:13:53.755Z,4.10
2022-10-25T23:16:22.012Z,2.67
2022-10-25T23:18:51.976Z,2.83
2022-10-25T23:21:23.346Z,3.75
2022-10-25T23:23:52.313Z,3.70
2022-10-25T23:26:22.157Z,3.50
2022-10-25T23:28:50.524Z,3.20
2022-10-25T23:31:19.156Z,2.90
2022-10-25T23:33:53.060Z,2.90
2022-10-25T23:36:22.657Z,2.83
2022-10-25T23:38:51.808Z,3.60
2022-10-25T23:41:20.674Z,3.53
2022-10-25T23:43:49.186Z,2.92
2022-10-25T23:46:17.464Z,3.42
2022-10-25T23:48:45.794Z,3.20
2022-10-25T23:51:17.372Z,3.50
2022-10-25T23:53:46.528Z,3.58
2022-10-25T23:56:15.190Z,4.05
2022-10-25T23:58:43.642Z,4.30
